createdAt,value
2019-03-04T00:04:33.747Z,7.67
2019-03-04T00:09:35.313Z,7.72
2019-03-04T00:14:36.902Z,7.76
2019-03-04T00:19:38.621Z,7.80
2019-03-04T00:24:40.391Z,7.84
2019-03-04T00:29:42.131Z,7.83
2019-03-04T00:34:43.708Z,7.85
2019-03-04T00:39:45.404Z,7.86
2019-03-04T00:44:47.112Z,7.91
2019-03-04T00:49:48.855Z,7.91
2019-03-04T00:54:50.415Z,7.86
2019-03-04T00:59:52.291Z,7.84
2019-03-04T01:04:53.886Z,7.77
2019-03-04T01:09:55.687Z,7.82
2019-03-04T01:14:57.235Z,7.81
2019-03-04T01:19:59.824Z,7.83
2019-03-04T01:25:01.558Z,7.79
2019-03-04T01:30:11.325Z,7.81
2019-03-04T01:35:13.084Z,7.78
2019-03-04T01:40:22.464Z,7.74
2019-03-04T01:45:24.056Z,7.74
2019-03-04T01:50:25.676Z,7.79
2019-03-04T01:55:27.274Z,7.81
2019-03-04T02:00:28.879Z,7.83
2019-03-04T02:05:30.554Z,7.94
2019-03-04T02:10:33.211Z,7.97
2019-03-04T02:15:34.903Z,7.96
2019-03-04T02:20:36.464Z,8.00
2019-03-04T02:25:50.028Z,8.03
2019-03-04T02:30:51.584Z,8.01
2019-03-04T02:35:53.194Z,7.96
2019-03-04T02:40:54.788Z,7.95
2019-03-04T02:45:56.380Z,7.92
2019-03-04T02:50:58.100Z,7.94
2019-03-04T02:55:59.672Z,8.06
2019-03-04T03:01:01.237Z,8.08
2019-03-04T03:06:04.141Z,8.13
2019-03-04T03:11:05.806Z,8.16
2019-03-04T03:16:07.502Z,8.12
2019-03-04T03:21:09.058Z,8.08
2019-03-04T03:26:10.614Z,8.19
2019-03-04T03:31:12.517Z,8.24
2019-03-04T03:36:14.275Z,8.37
2019-03-04T03:41:15.929Z,8.43
2019-03-04T03:46:17.543Z,8.39
2019-03-04T03:51:19.172Z,8.46
2019-03-04T03:56:21.154Z,8.51
2019-03-04T04:01:22.699Z,8.53
2019-03-04T04:06:24.693Z,8.53
2019-03-04T04:11:26.250Z,8.64
2019-03-04T04:16:27.840Z,8.69
2019-03-04T04:21:29.422Z,8.79
2019-03-04T04:26:30.968Z,8.79
2019-03-04T04:31:32.527Z,8.77
2019-03-04T04:36:34.081Z,8.71
2019-03-04T04:41:35.637Z,8.57
2019-03-04T04:46:47.502Z,8.49
2019-03-04T04:51:49.343Z,8.46
2019-03-04T04:56:53.771Z,8.47
2019-03-04T05:01:55.329Z,8.51
2019-03-04T05:06:57.016Z,8.40
2019-03-04T05:11:59.765Z,8.39
2019-03-04T05:17:01.668Z,8.40
2019-03-04T05:22:03.321Z,8.38
2019-03-04T05:27:04.899Z,8.32
2019-03-04T05:32:06.468Z,8.36
2019-03-04T05:37:08.035Z,8.36
2019-03-04T05:42:10.723Z,8.30
2019-03-04T05:47:12.381Z,8.32
2019-03-04T05:52:14.103Z,8.35
2019-03-04T05:57:15.703Z,8.38
2019-03-04T06:02:17.864Z,8.42
2019-03-04T06:07:28.361Z,8.68
2019-03-04T06:12:29.951Z,8.79
2019-03-04T06:17:31.530Z,9.02
2019-03-04T06:22:33.090Z,9.22
2019-03-04T06:27:34.704Z,9.35
2019-03-04T06:32:36.253Z,9.46
2019-03-04T06:37:38.122Z,9.41
2019-03-04T06:42:39.896Z,9.33
2019-03-04T06:47:41.558Z,9.22
2019-03-04T06:52:43.179Z,9.17
2019-03-04T06:57:44.892Z,9.19
2019-03-04T07:02:46.449Z,9.21
2019-03-04T07:07:47.987Z,9.18
2019-03-04T07:12:49.568Z,9.17
2019-03-04T07:17:51.273Z,9.18
2019-03-04T07:22:52.853Z,9.18
2019-03-04T07:27:54.617Z,9.23
2019-03-04T07:32:56.177Z,9.32
2019-03-04T07:38:21.111Z,9.42
2019-03-04T07:43:22.668Z,9.51
2019-03-04T07:48:25.361Z,9.57
2019-03-04T07:53:26.976Z,9.93
2019-03-04T07:58:28.529Z,10.24
2019-03-04T08:03:30.264Z,10.50
2019-03-04T08:08:33.862Z,10.65
2019-03-04T08:13:41.177Z,10.88
2019-03-04T08:18:42.723Z,11.19
2019-03-04T08:23:44.287Z,11.51
2019-03-04T08:28:45.835Z,11.78
2019-03-04T08:33:47.433Z,11.96
2019-03-04T08:38:49.009Z,12.18
2019-03-04T08:43:50.560Z,12.41
2019-03-04T08:48:52.115Z,12.62
2019-03-04T08:53:53.792Z,12.89
2019-03-04T08:58:55.382Z,13.08
2019-03-04T09:03:56.949Z,13.22
2019-03-04T09:08:58.522Z,13.48
2019-03-04T09:14:00.130Z,13.60
2019-03-04T09:19:01.681Z,13.76
2019-03-04T09:24:04.449Z,13.94
2019-03-04T09:29:06.076Z,13.96
2019-03-04T09:34:07.632Z,14.16
2019-03-04T09:39:27.276Z,14.34
2019-03-04T09:44:31.525Z,14.66
2019-03-04T09:49:33.308Z,14.84
2019-03-04T09:54:40.210Z,15.19
2019-03-04T09:59:42.263Z,15.02
2019-03-04T10:05:00.347Z,15.22
2019-03-04T10:11:07.818Z,15.51
2019-03-04T10:16:24.448Z,15.20
2019-03-04T10:21:52.400Z,14.89
2019-03-04T10:27:14.663Z,15.61
2019-03-04T10:32:25.707Z,15.78
2019-03-04T10:37:48.140Z,15.60
2019-03-04T10:43:16.558Z,15.35
2019-03-04T10:48:18.103Z,14.72
2019-03-04T10:53:19.671Z,14.58
2019-03-04T10:58:22.435Z,15.28
2019-03-04T11:03:25.191Z,15.01
2019-03-04T11:08:26.856Z,14.98
2019-03-04T11:13:28.452Z,14.73
2019-03-04T11:18:31.163Z,14.82
2019-03-04T11:23:32.724Z,15.05
2019-03-04T11:28:34.698Z,15.54
2019-03-04T11:33:36.251Z,15.84
2019-03-04T11:38:48.475Z,15.48
2019-03-04T11:43:50.413Z,15.23
2019-03-04T11:48:52.143Z,15.36
2019-03-04T11:53:53.707Z,15.96
2019-03-04T11:58:55.419Z,16.29
2019-03-04T12:03:56.984Z,16.59
2019-03-04T12:08:58.691Z,16.40
2019-03-04T12:14:00.285Z,16.10
2019-03-04T12:19:02.048Z,16.11
2019-03-04T12:24:03.906Z,15.87
2019-03-04T12:29:05.678Z,16.07
2019-03-04T12:34:07.636Z,15.88
2019-03-04T12:39:10.022Z,15.67
2019-03-04T12:44:12.021Z,15.73
2019-03-04T12:49:13.676Z,15.63
2019-03-04T12:54:15.229Z,15.78
2019-03-04T12:59:16.879Z,15.63
2019-03-04T13:04:18.684Z,15.71
2019-03-04T13:09:20.244Z,15.63
2019-03-04T13:14:22.708Z,15.41
2019-03-04T13:19:24.306Z,15.27
2019-03-04T13:24:26.012Z,15.19
2019-03-04T13:29:27.580Z,14.90
2019-03-04T13:34:29.137Z,14.69
2019-03-04T13:39:30.686Z,14.61
2019-03-04T13:44:32.239Z,14.65
2019-03-04T13:49:33.892Z,14.77
2019-03-04T13:54:35.602Z,14.85
2019-03-04T13:59:37.218Z,14.95
2019-03-04T14:04:38.814Z,15.01
2019-03-04T14:09:40.422Z,15.13
2019-03-04T14:14:41.971Z,15.45
2019-03-04T14:19:43.526Z,15.78
2019-03-04T14:24:45.134Z,15.84
2019-03-04T14:29:46.682Z,15.78
2019-03-04T14:34:48.412Z,15.61
2019-03-04T14:39:49.980Z,15.52
2019-03-04T14:44:51.647Z,15.44
2019-03-04T14:49:53.197Z,15.47
2019-03-04T14:54:54.751Z,15.45
2019-03-04T14:59:56.379Z,15.43
2019-03-04T15:04:59.074Z,15.44
2019-03-04T15:10:00.684Z,15.41
2019-03-04T15:15:10.674Z,15.36
2019-03-04T15:20:19.524Z,15.27
2019-03-04T15:25:33.051Z,15.26
2019-03-04T15:30:35.599Z,15.20
2019-03-04T15:35:37.298Z,15.14
2019-03-04T15:40:38.888Z,15.06
2019-03-04T15:45:42.444Z,15.05
2019-03-04T15:50:43.997Z,15.10
2019-03-04T15:55:45.653Z,15.07
2019-03-04T16:00:47.475Z,15.02
2019-03-04T16:05:49.040Z,14.99
2019-03-04T16:10:50.980Z,14.95
2019-03-04T16:15:52.733Z,14.95
2019-03-04T16:20:54.480Z,14.90
2019-03-04T16:25:56.244Z,14.82
2019-03-04T16:30:58.000Z,14.74
2019-03-04T16:35:59.551Z,14.61
2019-03-04T16:41:01.156Z,14.36
2019-03-04T16:46:03.123Z,14.06
2019-03-04T16:51:05.035Z,13.84
2019-03-04T16:56:06.583Z,13.64
2019-03-04T17:01:08.317Z,13.45
2019-03-04T17:06:10.083Z,13.59
2019-03-04T17:11:12.045Z,13.71
2019-03-04T17:16:14.184Z,13.65
2019-03-04T17:21:15.837Z,13.56
2019-03-04T17:26:17.589Z,13.50
2019-03-04T17:31:19.140Z,13.46
2019-03-04T17:36:20.829Z,13.33
2019-03-04T17:41:22.686Z,13.24
2019-03-04T17:46:26.044Z,13.18
2019-03-04T17:51:27.597Z,13.17
2019-03-04T17:56:29.165Z,13.20
2019-03-04T18:01:31.067Z,13.12
2019-03-04T18:06:33.734Z,13.20
2019-03-04T18:11:35.528Z,13.24
2019-03-04T18:16:37.182Z,13.18
2019-03-04T18:21:38.732Z,13.11
2019-03-04T18:26:43.656Z,13.03
2019-03-04T18:31:57.144Z,13.01
2019-03-04T18:37:39.828Z,12.96
2019-03-04T18:43:13.171Z,12.93
2019-03-04T18:49:00.234Z,12.85
2019-03-04T18:54:06.883Z,12.80
2019-03-04T18:59:08.752Z,12.75
2019-03-04T19:04:10.849Z,12.59
2019-03-04T19:09:12.800Z,12.04
2019-03-04T19:14:16.074Z,11.40
2019-03-04T19:19:17.769Z,10.92
2019-03-04T19:24:19.327Z,10.65
2019-03-04T19:29:21.188Z,10.33
2019-03-04T19:34:22.759Z,10.05
2019-03-04T19:39:24.542Z,9.87
2019-03-04T19:44:26.154Z,9.55
2019-03-04T19:49:27.909Z,9.08
2019-03-04T19:54:29.682Z,8.71
2019-03-04T19:59:31.249Z,8.36
2019-03-04T20:04:33.269Z,8.05
2019-03-04T20:09:35.067Z,7.72
2019-03-04T20:14:37.042Z,7.40
2019-03-04T20:19:38.628Z,7.15
2019-03-04T20:24:40.287Z,6.99
2019-03-04T20:29:42.000Z,6.87
2019-03-04T20:34:43.874Z,6.73
2019-03-04T20:39:45.586Z,6.69
2019-03-04T20:44:47.244Z,6.64
2019-03-04T20:49:48.801Z,6.58
2019-03-04T20:54:50.368Z,6.57
2019-03-04T20:59:52.027Z,6.69
2019-03-04T21:04:53.787Z,6.76
2019-03-04T21:09:55.612Z,6.78
2019-03-04T21:14:57.417Z,6.87
2019-03-04T21:19:59.107Z,6.90
2019-03-04T21:25:00.933Z,6.89
2019-03-04T21:30:41.720Z,7.04
2019-03-04T21:35:52.242Z,7.18
2019-03-04T21:41:00.567Z,7.34
2019-03-04T21:46:45.759Z,7.48
2019-03-04T21:51:55.881Z,7.57
2019-03-04T21:57:03.341Z,7.71
2019-03-04T22:02:16.976Z,7.78
2019-03-04T22:07:18.917Z,7.84
2019-03-04T22:12:20.798Z,7.84
2019-03-04T22:17:22.452Z,7.86
2019-03-04T22:22:24.272Z,7.84
2019-03-04T22:27:26.059Z,7.79
2019-03-04T22:32:27.726Z,7.76
2019-03-04T22:37:31.291Z,7.69
2019-03-04T22:42:33.057Z,7.48
2019-03-04T22:47:34.802Z,7.43
2019-03-04T22:52:37.195Z,7.37
2019-03-04T22:57:38.846Z,7.32
2019-03-04T23:02:40.878Z,7.30
2019-03-04T23:07:42.738Z,7.34
2019-03-04T23:12:49.621Z,7.47
2019-03-04T23:17:51.279Z,7.58
2019-03-04T23:22:53.771Z,7.65
2019-03-04T23:27:55.523Z,7.72
2019-03-04T23:32:57.120Z,7.72
2019-03-04T23:37:58.719Z,7.79
2019-03-04T23:43:00.322Z,7.73
2019-03-04T23:48:01.866Z,7.72
2019-03-04T23:53:03.869Z,7.78
2019-03-04T23:58:05.419Z,7.83
